createdAt,value
2022-09-26T00:00:25.182Z,100558.59
2022-09-26T00:02:53.066Z,100556.69
2022-09-26T00:05:22.345Z,100558.59
2022-09-26T00:07:50.515Z,100547.69
2022-09-26T00:10:18.431Z,100545.19
2022-09-26T00:12:46.429Z,100537.00
2022-09-26T00:15:14.251Z,100538.66
2022-09-26T00:17:42.405Z,100539.50
2022-09-26T00:20:10.800Z,100538.66
2022-09-26T00:22:40.053Z,100527.75
2022-09-26T00:25:09.185Z,100524.19
2022-09-26T00:27:37.073Z,100513.28
2022-09-26T00:30:06.690Z,100505.09
2022-09-26T00:32:34.569Z,100500.47
2022-09-26T00:35:03.509Z,100500.47
2022-09-26T00:37:31.652Z,100493.13
2022-09-26T00:40:00.958Z,100491.47
2022-09-26T00:42:28.870Z,100486.84
2022-09-26T00:44:56.869Z,100486.84
2022-09-26T00:47:40.375Z,100481.63
2022-09-26T00:50:13.279Z,100474.25
2022-09-26T00:52:42.951Z,100468.81
2022-09-26T00:55:14.087Z,100473.44
2022-09-26T00:57:45.390Z,100466.91
2022-09-26T01:00:14.841Z,100469.03
2022-09-26T01:02:43.455Z,100467.16
2022-09-26T01:05:12.204Z,100467.97
2022-09-26T01:07:40.306Z,100465.25
2022-09-26T01:10:08.816Z,100457.91
2022-09-26T01:12:38.093Z,100448.31
2022-09-26T01:15:09.212Z,100448.06
2022-09-26T01:17:37.881Z,100450.78
2022-09-26T01:20:18.666Z,100443.44
2022-09-26T01:23:11.772Z,100440.97
2022-09-26T01:25:58.420Z,100439.03
2022-09-26T01:28:36.629Z,100444.50
2022-09-26T01:31:11.932Z,100434.69
2022-09-26T01:33:44.935Z,100439.03
2022-09-26T01:36:24.674Z,100429.22
2022-09-26T01:38:59.574Z,100415.72
2022-09-26T01:41:37.864Z,100430.06
2022-09-26T01:44:10.005Z,100421.03
2022-09-26T01:46:42.636Z,100405.63
2022-09-26T01:49:12.370Z,100416.41
2022-09-26T01:51:41.381Z,100419.72
2022-09-26T01:54:11.864Z,100410.69
2022-09-26T01:56:40.379Z,100396.50
2022-09-26T01:59:09.898Z,100398.13
2022-09-26T02:01:40.981Z,100383.59
2022-09-26T02:04:10.429Z,100389.94
2022-09-26T02:06:40.872Z,100380.97
2022-09-26T02:09:10.427Z,100382.03
2022-09-26T02:11:38.543Z,100357.44
2022-09-26T02:14:08.287Z,100369.81
2022-09-26T02:16:37.838Z,100381.75
2022-09-26T02:19:10.239Z,100337.38
2022-09-26T02:21:38.120Z,100330.03
2022-09-26T02:24:06.068Z,100377.41
2022-09-26T02:26:34.508Z,100370.03
2022-09-26T02:29:02.519Z,100360.75
2022-09-26T02:31:33.089Z,100350.94
2022-09-26T02:34:00.985Z,100349.84
2022-09-26T02:36:33.724Z,100345.22
2022-09-26T02:39:02.224Z,100335.97
2022-09-26T02:41:33.309Z,100326.97
2022-09-26T02:44:22.545Z,100332.41
2022-09-26T02:47:00.130Z,100317.94
2022-09-26T02:49:36.701Z,100324.47
2022-09-26T02:52:16.262Z,100312.16
2022-09-26T02:54:46.558Z,100317.38
2022-09-26T02:57:22.885Z,100306.38
2022-09-26T02:59:54.680Z,100306.47
2022-09-26T03:02:24.792Z,100292.84
2022-09-26T03:04:53.919Z,100291.75
2022-09-26T03:07:26.178Z,100291.75
2022-09-26T03:09:54.196Z,100276.72
2022-09-26T03:12:22.052Z,100275.13
2022-09-26T03:14:49.967Z,100275.13
2022-09-26T03:17:18.563Z,100264.47
2022-09-26T03:19:47.533Z,100260.34
2022-09-26T03:22:15.893Z,100259.84
2022-09-26T03:24:45.545Z,100250.84
2022-09-26T03:27:14.402Z,100212.56
2022-09-26T03:29:42.285Z,100249.75
2022-09-26T03:32:10.251Z,100251.66
2022-09-26T03:34:39.926Z,100244.31
2022-09-26T03:37:08.429Z,100240.75
2022-09-26T03:39:36.289Z,100240.50
2022-09-26T03:42:05.875Z,100230.66
2022-09-26T03:44:33.766Z,100219.75
2022-09-26T03:47:01.871Z,100221.41
2022-09-26T03:49:29.872Z,100217.84
2022-09-26T03:51:57.720Z,100212.41
2022-09-26T03:54:25.563Z,100202.56
2022-09-26T03:56:55.451Z,100201.72
2022-09-26T03:59:24.736Z,100196.03
2022-09-26T04:01:52.783Z,100196.03
2022-09-26T04:04:20.728Z,100195.22
2022-09-26T04:06:51.110Z,100184.31
2022-09-26T04:09:19.297Z,100170.03
2022-09-26T04:11:47.389Z,100182.63
2022-09-26T04:14:15.287Z,100183.47
2022-09-26T04:16:44.623Z,100171.50
2022-09-26T04:19:13.146Z,100168.75
2022-09-26T04:21:41.138Z,100166.03
2022-09-26T04:24:09.562Z,100125.06
2022-09-26T04:26:37.454Z,100158.69
2022-09-26T04:29:05.916Z,100149.44
2022-09-26T04:31:36.889Z,100145.63
2022-09-26T04:34:06.195Z,100140.19
2022-09-26T04:36:34.380Z,100143.72
2022-09-26T04:39:02.227Z,100136.34
2022-09-26T04:41:30.128Z,100135.28
2022-09-26T04:43:58.296Z,100131.47
2022-09-26T04:46:30.616Z,100119.75
2022-09-26T04:49:00.098Z,100129.81
2022-09-26T04:51:29.909Z,100112.00
2022-09-26T04:53:57.813Z,100122.16
2022-09-26T04:56:27.057Z,100108.50
2022-09-26T04:58:56.400Z,100102.81
2022-09-26T05:01:24.661Z,100107.16
2022-09-26T05:03:53.371Z,100103.38
2022-09-26T05:06:21.261Z,100096.25
2022-09-26T05:08:50.934Z,100098.97
2022-09-26T05:11:19.699Z,100095.19
2022-09-26T05:13:53.601Z,100090.56
2022-09-26T05:16:22.084Z,100088.91
2022-09-26T05:18:51.235Z,100080.16
2022-09-26T05:21:19.155Z,100091.91
2022-09-26T05:24:04.442Z,100082.91
2022-09-26T05:26:39.382Z,100087.53
2022-09-26T05:29:09.109Z,100074.72
2022-09-26T05:31:38.122Z,100073.06
2022-09-26T05:34:06.252Z,100067.00
2022-09-26T05:36:34.325Z,100074.72
2022-09-26T05:39:02.509Z,100070.88
2022-09-26T05:41:29.605Z,100062.69
2022-09-26T05:43:58.967Z,100064.03
2022-09-26T05:46:28.097Z,100049.06
2022-09-26T05:48:57.195Z,100051.78
2022-09-26T05:51:25.119Z,100052.63
2022-09-26T05:53:53.111Z,100051.53
2022-09-26T05:56:21.010Z,100050.72
2022-09-26T05:58:49.150Z,100049.41
2022-09-26T06:01:19.063Z,100048.56
2022-09-26T06:03:47.631Z,100046.69
2022-09-26T06:06:16.578Z,100043.94
2022-09-26T06:08:44.744Z,100038.50
2022-09-26T06:11:13.903Z,100031.13
2022-09-26T06:13:44.075Z,100021.28
2022-09-26T06:16:13.368Z,100019.41
2022-09-26T06:18:42.962Z,100014.19
2022-09-26T06:21:11.402Z,100004.94
2022-09-26T06:23:39.260Z,100011.47
2022-09-26T06:26:09.144Z,100005.75
2022-09-26T06:28:37.123Z,100005.75
2022-09-26T06:31:10.143Z,99995.09
2022-09-26T06:33:38.013Z,99991.78
2022-09-26T06:36:08.142Z,99984.69
2022-09-26T06:38:36.294Z,99984.69
2022-09-26T06:41:04.298Z,99981.97
2022-09-26T06:43:33.007Z,99976.53
2022-09-26T06:46:00.979Z,99972.13
2022-09-26T06:48:29.150Z,99974.88
2022-09-26T06:51:00.111Z,99970.25
2022-09-26T06:53:30.338Z,99964.50
2022-09-26T06:55:59.569Z,99951.97
2022-09-26T06:58:28.031Z,99952.53
2022-09-26T07:00:56.652Z,99948.72
2022-09-26T07:03:25.291Z,99956.06
2022-09-26T07:05:55.380Z,99957.72
2022-09-26T07:08:43.281Z,99949.53
2022-09-26T07:11:35.084Z,99936.16
2022-09-26T07:14:02.042Z,99942.44
2022-09-26T07:16:30.196Z,99935.09
2022-09-26T07:18:58.384Z,99933.44
2022-09-26T07:21:26.676Z,99930.47
2022-09-26T07:23:57.632Z,99932.09
2022-09-26T07:26:27.210Z,99921.69
2022-09-26T07:28:55.278Z,99929.38
2022-09-26T07:31:24.155Z,99926.66
2022-09-26T07:33:52.170Z,99918.72
2022-09-26T07:36:21.116Z,99917.66
2022-09-26T07:38:49.371Z,99916.00
2022-09-26T07:41:17.361Z,99914.34
2022-09-26T07:44:46.172Z,99913.50
2022-09-26T07:46:51.867Z,99913.50
2022-09-26T07:49:33.596Z,99902.06
2022-09-26T07:52:01.553Z,99898.50
2022-09-26T07:54:29.386Z,99900.97
2022-09-26T07:56:57.503Z,99897.66
2022-09-26T07:59:26.752Z,99897.41
2022-09-26T08:01:55.250Z,99890.06
2022-09-26T08:04:23.158Z,99892.78
2022-09-26T08:06:51.249Z,99895.53
2022-09-26T08:09:19.342Z,99885.69
2022-09-26T08:11:47.313Z,99880.78
2022-09-26T08:14:15.480Z,99871.22
2022-09-26T08:16:44.862Z,99888.13
2022-09-26T08:19:13.734Z,99882.69
2022-09-26T08:21:41.783Z,99878.06
2022-09-26T08:24:10.031Z,99873.94
2022-09-26T08:26:44.200Z,99880.78
2022-09-26T08:29:12.555Z,99878.06
2022-09-26T08:31:40.563Z,99878.88
2022-09-26T08:34:09.964Z,99878.63
2022-09-26T08:36:38.082Z,99871.53
2022-09-26T08:39:06.447Z,99884.34
2022-09-26T08:41:46.128Z,99878.06
2022-09-26T08:44:24.180Z,99875.84
2022-09-26T08:46:58.676Z,99871.78
2022-09-26T08:49:44.650Z,99871.78
2022-09-26T08:52:28.012Z,99867.41
2022-09-26T08:54:56.521Z,99865.53
2022-09-26T08:57:32.275Z,99873.94
2022-09-26T09:00:00.180Z,99873.94
2022-09-26T09:02:38.421Z,99869.31
2022-09-26T09:05:10.010Z,99859.25
2022-09-26T09:07:38.208Z,99857.34
2022-09-26T09:10:07.535Z,99853.78
2022-09-26T09:12:40.962Z,99849.66
2022-09-26T09:15:25.743Z,99861.69
2022-09-26T09:17:59.624Z,99852.69
2022-09-26T09:20:36.159Z,99840.97
2022-09-26T09:23:30.940Z,99845.59
2022-09-26T09:29:10.087Z,99837.13
2022-09-26T09:31:39.997Z,99835.22
2022-09-26T09:34:11.324Z,99830.59
2022-09-26T09:36:41.782Z,99818.03
2022-09-26T09:39:09.937Z,99818.03
2022-09-26T09:41:40.154Z,99815.31
2022-09-26T09:44:23.685Z,99813.41
2022-09-26T09:46:51.795Z,99805.22
2022-09-26T09:49:21.192Z,99800.06
2022-09-26T09:51:56.841Z,99807.13
2022-09-26T09:54:33.700Z,99796.22
2022-09-26T09:57:27.017Z,99794.59
2022-09-26T10:00:02.550Z,99791.59
2022-09-26T10:02:33.213Z,99787.22
2022-09-26T10:05:06.192Z,99750.75
2022-09-26T10:07:35.759Z,99781.22
2022-09-26T10:10:04.844Z,99765.69
2022-09-26T10:12:35.035Z,99766.50
2022-09-26T10:15:05.141Z,99762.66
2022-09-26T10:17:33.122Z,99760.75
2022-09-26T10:20:01.127Z,99752.59
2022-09-26T10:22:32.618Z,99755.31
2022-09-26T10:25:08.427Z,99756.97
2022-09-26T10:27:38.068Z,99743.31
2022-09-26T10:30:22.577Z,99743.31
2022-09-26T10:32:56.081Z,99733.25
2022-09-26T10:35:25.428Z,99725.88
2022-09-26T10:37:59.918Z,99731.34
2022-09-26T10:40:48.265Z,99723.41
2022-09-26T10:43:24.619Z,99719.59
2022-09-26T10:45:54.970Z,99708.94
2022-09-26T10:48:24.288Z,99702.66
2022-09-26T10:50:52.872Z,99693.69
2022-09-26T10:53:23.049Z,99694.47
2022-09-26T10:55:57.521Z,99684.41
2022-09-26T10:58:27.700Z,99686.31
2022-09-26T11:00:57.301Z,99687.13
2022-09-26T11:03:26.151Z,99686.31
2022-09-26T11:05:59.296Z,99687.13
2022-09-26T11:08:28.823Z,99685.50
2022-09-26T11:10:58.215Z,99675.16
2022-09-26T11:13:26.908Z,99670.75
2022-09-26T11:16:01.793Z,99671.59
2022-09-26T11:18:37.130Z,99663.69
2022-09-26T11:21:18.391Z,99657.94
2022-09-26T11:23:58.070Z,99653.56
2022-09-26T11:26:33.950Z,99639.94
2022-09-26T11:29:08.229Z,99637.22
2022-09-26T11:31:37.367Z,99637.78
2022-09-26T11:34:05.433Z,99632.31
2022-09-26T11:36:41.901Z,99624.16
2022-09-26T11:39:18.380Z,99622.78
2022-09-26T11:41:53.485Z,99617.63
2022-09-26T11:44:40.332Z,99610.50
2022-09-26T11:47:36.960Z,99593.28
2022-09-26T11:50:14.833Z,99601.25
2022-09-26T11:52:49.464Z,99600.41
2022-09-26T11:55:21.421Z,99592.25
2022-09-26T11:57:56.057Z,99593.06
2022-09-26T12:00:27.760Z,99579.41
2022-09-26T12:03:27.765Z,99578.34
2022-09-26T12:05:59.593Z,99574.22
2022-09-26T12:08:42.807Z,99571.25
2022-09-26T12:11:17.211Z,99563.06
2022-09-26T12:13:52.307Z,99547.78
2022-09-26T12:16:23.031Z,99552.41
2022-09-26T12:18:59.504Z,99545.06
2022-09-26T12:21:32.712Z,99548.84
2022-09-26T12:24:03.679Z,99543.16
2022-09-26T12:26:35.072Z,99543.16
2022-09-26T12:29:11.800Z,99537.69
2022-09-26T12:31:49.641Z,99532.78
2022-09-26T12:34:27.568Z,99527.31
2022-09-26T12:37:04.044Z,99519.16
2022-09-26T12:39:47.466Z,99528.94
2022-09-26T12:42:24.684Z,99524.06
2022-09-26T12:45:26.692Z,99523.50
2022-09-26T12:48:22.621Z,99528.19
2022-09-26T12:50:56.806Z,99520.78
2022-09-26T12:53:44.451Z,99528.44
2022-09-26T12:56:15.552Z,99532.53
2022-09-26T12:58:57.610Z,99519.94
2022-09-26T13:01:58.111Z,99532.53
2022-09-26T13:05:08.844Z,99535.25
2022-09-26T13:07:43.391Z,99526.25
2022-09-26T13:10:20.468Z,99528.97
2022-09-26T13:12:57.982Z,99521.06
2022-09-26T13:15:28.978Z,99516.44
2022-09-26T13:18:01.809Z,99511.81
2022-09-26T13:20:32.769Z,99518.06
2022-09-26T13:23:03.408Z,99513.44
2022-09-26T13:25:34.294Z,99508.25
2022-09-26T13:28:05.080Z,99510.16
2022-09-26T13:30:35.614Z,99508.25
2022-09-26T13:33:08.534Z,99496.50
2022-09-26T13:35:37.465Z,99500.91
2022-09-26T13:38:19.334Z,99496.25
2022-09-26T13:40:51.578Z,99496.53
2022-09-26T13:43:26.223Z,99493.50
2022-09-26T13:46:00.289Z,99484.22
2022-09-26T13:48:45.308Z,99489.44
2022-09-26T13:51:21.849Z,99486.69
2022-09-26T13:54:06.755Z,99488.34
2022-09-26T13:56:56.831Z,99484.25
2022-09-26T13:59:55.439Z,99479.09
2022-09-26T14:02:31.777Z,99425.53
2022-09-26T14:05:44.064Z,99476.09
2022-09-26T14:08:52.801Z,99479.91
2022-09-26T14:11:30.964Z,99472.00
2022-09-26T14:14:26.436Z,99461.34
2022-09-26T14:16:56.716Z,99471.19
2022-09-26T14:19:31.772Z,99444.66
2022-09-26T14:22:02.433Z,99458.63
2022-09-26T14:24:41.965Z,99460.53
2022-09-26T14:27:52.709Z,99458.63
2022-09-26T14:30:38.567Z,99453.44
2022-09-26T14:33:09.181Z,99447.97
2022-09-26T14:35:38.572Z,99449.09
2022-09-26T14:38:10.195Z,99434.63
2022-09-26T14:40:39.834Z,99398.28
2022-09-26T14:43:13.720Z,99418.25
2022-09-26T14:45:49.615Z,99410.91
2022-09-26T14:48:32.201Z,99404.63
2022-09-26T14:51:02.505Z,99399.16
2022-09-26T14:53:35.302Z,99398.06
2022-09-26T14:56:06.428Z,99393.72
2022-09-26T14:58:47.290Z,99395.31
2022-09-26T15:01:19.364Z,99385.53
2022-09-26T15:04:01.503Z,99373.25
2022-09-26T15:06:29.704Z,99374.31
2022-09-26T15:08:59.265Z,99374.63
2022-09-26T15:11:34.771Z,99362.88
2022-09-26T15:14:06.065Z,99372.72
2022-09-26T15:16:37.491Z,99370.25
2022-09-26T15:19:07.315Z,99369.16
2022-09-26T15:21:38.452Z,99370.00
2022-09-26T15:24:22.745Z,99380.06
2022-09-26T15:26:52.220Z,99363.41
2022-09-26T15:29:22.114Z,99363.41
2022-09-26T15:31:51.256Z,99360.97
2022-09-26T15:34:21.061Z,99352.50
2022-09-26T15:36:51.300Z,99352.50
2022-09-26T15:39:44.950Z,99351.69
2022-09-26T15:42:42.490Z,99350.06
2022-09-26T15:45:27.528Z,99351.69
2022-09-26T15:47:56.381Z,99329.59
2022-09-26T15:50:27.358Z,99317.06
2022-09-26T15:52:57.506Z,99316.53
2022-09-26T15:55:26.867Z,99319.25
2022-09-26T15:57:57.665Z,99279.66
2022-09-26T16:00:25.632Z,99322.25
2022-09-26T16:02:53.948Z,99323.06
2022-09-26T16:05:22.044Z,99322.81
2022-09-26T16:07:50.575Z,99316.25
2022-09-26T16:10:22.973Z,99318.19
2022-09-26T16:12:51.244Z,99313.50
2022-09-26T16:15:24.520Z,99300.97
2022-09-26T16:17:53.059Z,99311.59
2022-09-26T16:20:27.654Z,99308.88
2022-09-26T16:23:00.417Z,99297.72
2022-09-26T16:25:36.331Z,99278.34
2022-09-26T16:28:41.917Z,99287.63
2022-09-26T16:31:17.781Z,99288.69
2022-09-26T16:33:50.475Z,99267.97
2022-09-26T16:36:23.215Z,99270.16
2022-09-26T16:38:52.427Z,99264.44
2022-09-26T16:41:48.830Z,99261.72
2022-09-26T16:44:26.239Z,99266.06
2022-09-26T16:46:58.891Z,99259.00
2022-09-26T16:49:32.265Z,99253.78
2022-09-26T16:52:12.276Z,99252.16
2022-09-26T16:54:43.601Z,99251.06
2022-09-26T16:57:11.844Z,99252.97
2022-09-26T16:59:39.837Z,99233.88
2022-09-26T17:02:09.680Z,99244.78
2022-09-26T17:04:37.820Z,99240.44
2022-09-26T17:07:09.857Z,99242.34
2022-09-26T17:09:41.232Z,99237.13
2022-09-26T17:12:14.782Z,99228.97
2022-09-26T17:14:42.796Z,99230.91
2022-09-26T17:17:16.119Z,99226.22
2022-09-26T17:19:44.559Z,99227.34
2022-09-26T17:22:14.509Z,99228.16
2022-09-26T17:24:43.151Z,99223.78
2022-09-26T17:27:14.510Z,99226.22
2022-09-26T17:29:44.411Z,99214.22
2022-09-26T17:32:15.175Z,99217.78
2022-09-26T17:34:44.469Z,99215.88
2022-09-26T17:37:13.136Z,99209.34
2022-09-26T17:39:41.194Z,99206.59
2022-09-26T17:42:09.253Z,99207.44
2022-09-26T17:44:37.245Z,99204.69
2022-09-26T17:47:07.200Z,99200.06
2022-09-26T17:49:38.540Z,99199.25
2022-09-26T17:52:12.968Z,99201.16
2022-09-26T17:54:42.848Z,99197.03
2022-09-26T17:57:11.431Z,99190.50
2022-09-26T17:59:42.094Z,99190.50
2022-09-26T18:02:17.557Z,99188.88
2022-09-26T18:04:47.039Z,99186.97
2022-09-26T18:07:16.247Z,99195.13
2022-09-26T18:09:44.606Z,99185.31
2022-09-26T18:12:15.162Z,99188.03
2022-09-26T18:14:43.211Z,99178.25
2022-09-26T18:17:12.407Z,99179.06
2022-09-26T18:19:40.433Z,99175.53
2022-09-26T18:22:12.203Z,99158.34
2022-09-26T18:24:40.204Z,99170.31
2022-09-26T18:27:10.591Z,99164.88
2022-09-26T18:29:39.811Z,99164.06
2022-09-26T18:32:17.990Z,99164.88
2022-09-26T18:34:45.985Z,99160.50
2022-09-26T18:37:16.351Z,99166.78
2022-09-26T18:39:44.367Z,99165.13
2022-09-26T18:42:13.307Z,99169.50
2022-09-26T18:44:42.563Z,99168.69
2022-09-26T18:47:14.725Z,99165.13
2022-09-26T18:49:42.713Z,99162.41
2022-09-26T18:52:15.094Z,99162.41
2022-09-26T18:54:45.163Z,99141.69
2022-09-26T18:57:45.744Z,99168.94
2022-09-26T19:00:13.963Z,99154.78
2022-09-26T19:02:42.554Z,99148.53
2022-09-26T19:05:11.765Z,99156.97
2022-09-26T19:07:40.433Z,99155.31
2022-09-26T19:10:11.803Z,99152.31
2022-09-26T19:12:39.887Z,99156.97
2022-09-26T19:15:14.166Z,99164.31
2022-09-26T19:17:42.160Z,99162.41
2022-09-26T19:20:10.240Z,99153.97
2022-09-26T19:22:38.218Z,99155.88
2022-09-26T19:25:06.974Z,99155.88
2022-09-26T19:27:40.063Z,99162.97
2022-09-26T19:30:14.818Z,99157.78
2022-09-26T19:32:43.724Z,99152.88
2022-09-26T19:35:13.933Z,99148.25
2022-09-26T19:37:41.902Z,99151.50
2022-09-26T19:40:13.938Z,99133.22
2022-09-26T19:42:43.419Z,99135.97
2022-09-26T19:45:12.455Z,99135.97
2022-09-26T19:47:41.376Z,99131.31
2022-09-26T19:50:12.112Z,99122.34
2022-09-26T19:52:40.063Z,99135.13
2022-09-26T19:55:13.674Z,99118.78
2022-09-26T19:57:43.045Z,99129.97
2022-09-26T20:00:12.919Z,99124.50
2022-09-26T20:02:40.966Z,99127.75
2022-09-26T20:05:15.583Z,99122.03
2022-09-26T20:07:44.570Z,99119.06
2022-09-26T20:10:15.786Z,99117.41
2022-09-26T20:12:45.254Z,99124.50
2022-09-26T20:15:13.999Z,99117.94
2022-09-26T20:17:43.094Z,99104.59
2022-09-26T20:20:12.875Z,99103.78
2022-09-26T20:22:42.467Z,99096.69
2022-09-26T20:25:15.591Z,99116.03
2022-09-26T20:27:44.966Z,99126.13
2022-09-26T20:30:32.360Z,99127.75
2022-09-26T20:33:00.419Z,99118.75
2022-09-26T20:35:33.136Z,99116.31
2022-09-26T20:38:04.548Z,99116.31
2022-09-26T20:40:32.596Z,99110.03
2022-09-26T20:43:03.769Z,99111.13
2022-09-26T20:45:34.637Z,99104.03
2022-09-26T20:48:02.978Z,99111.41
2022-09-26T20:50:34.202Z,99114.94
2022-09-26T20:53:02.526Z,99115.22
2022-09-26T20:55:32.511Z,99108.94
2022-09-26T20:58:01.897Z,99113.31
2022-09-26T21:00:29.837Z,99109.75
2022-09-26T21:02:58.085Z,99115.50
2022-09-26T21:05:27.433Z,99110.88
2022-09-26T21:07:55.984Z,99102.69
2022-09-26T21:10:24.965Z,99103.78
2022-09-26T21:12:52.978Z,99099.41
2022-09-26T21:15:22.716Z,99099.16
2022-09-26T21:17:51.099Z,99095.88
2022-09-26T21:20:20.810Z,99093.97
2022-09-26T21:22:48.764Z,99087.69
2022-09-26T21:25:17.964Z,99086.59
2022-09-26T21:27:46.104Z,99083.06
2022-09-26T21:30:15.574Z,99086.59
2022-09-26T21:32:46.849Z,99066.44
2022-09-26T21:35:15.122Z,99077.31
2022-09-26T21:37:43.316Z,99072.16
2022-09-26T21:40:11.495Z,99077.88
2022-09-26T21:42:39.423Z,99069.69
2022-09-26T21:45:10.342Z,99039.75
2022-09-26T21:47:38.318Z,99072.41
2022-09-26T21:50:08.667Z,99074.06
2022-09-26T21:52:37.709Z,99070.50
2022-09-26T21:55:06.589Z,99068.84
2022-09-26T21:57:35.593Z,99074.06
2022-09-26T22:00:04.308Z,99071.88
2022-09-26T22:02:32.338Z,99063.97
2022-09-26T22:05:00.590Z,99066.69
2022-09-26T22:07:30.135Z,99065.88
2022-09-26T22:09:58.228Z,99074.06
2022-09-26T22:12:26.298Z,99066.94
2022-09-26T22:14:54.577Z,99072.41
2022-09-26T22:17:22.579Z,99058.78
2022-09-26T22:19:53.183Z,99069.69
2022-09-26T22:22:21.684Z,99060.69
2022-09-26T22:24:51.425Z,99059.59
2022-09-26T22:27:19.436Z,99057.13
2022-09-26T22:29:48.426Z,99057.13
2022-09-26T22:32:16.454Z,99059.84
2022-09-26T22:34:44.450Z,99060.97
2022-09-26T22:37:12.437Z,99058.53
2022-09-26T22:39:40.446Z,99053.06
2022-09-26T22:42:09.858Z,99059.34
2022-09-26T22:44:37.866Z,99053.06
2022-09-26T22:47:06.563Z,99049.53
2022-09-26T22:49:34.571Z,99056.63
2022-09-26T22:52:02.993Z,99057.69
2022-09-26T22:54:31.007Z,99050.59
2022-09-26T22:56:59.259Z,99050.34
2022-09-26T22:59:28.871Z,99043.25
2022-09-26T23:01:57.443Z,99056.63
2022-09-26T23:04:45.438Z,99056.88
2022-09-26T23:07:13.780Z,99054.16
2022-09-26T23:09:41.762Z,99056.88
2022-09-26T23:12:10.120Z,99047.88
2022-09-26T23:14:39.529Z,99059.88
2022-09-26T23:17:08.005Z,99057.97
2022-09-26T23:19:36.087Z,99064.25
2022-09-26T23:22:04.101Z,99059.59
2022-09-26T23:24:32.102Z,99054.41
2022-09-26T23:27:00.132Z,99060.69
2022-09-26T23:29:28.174Z,99059.09
2022-09-26T23:31:57.861Z,99063.41
2022-09-26T23:34:25.873Z,99062.59
2022-09-26T23:36:54.173Z,99065.31
2022-09-26T23:39:22.322Z,99062.59
2022-09-26T23:41:50.293Z,99070.00
2022-09-26T23:44:18.293Z,99065.63
2022-09-26T23:46:46.572Z,99056.91
2022-09-26T23:49:16.032Z,99071.34
2022-09-26T23:51:44.112Z,99074.63
2022-09-26T23:54:12.348Z,99067.53
2022-09-26T23:56:41.675Z,99078.72
2022-09-26T23:59:09.837Z,99071.91
